createdAt,value
2018-12-24T00:01:34.107Z,7.47
2018-12-24T00:04:05.951Z,6.87
2018-12-24T00:06:37.467Z,7.00
2018-12-24T00:09:09.214Z,6.80
2018-12-24T00:11:40.710Z,7.00
2018-12-24T00:14:12.736Z,7.57
2018-12-24T00:16:44.179Z,7.73
2018-12-24T00:19:16.245Z,8.20
2018-12-24T00:21:50.950Z,7.90
2018-12-24T00:24:22.517Z,6.70
2018-12-24T00:26:53.914Z,7.53
2018-12-24T00:29:25.329Z,7.10
2018-12-24T00:31:56.797Z,7.33
2018-12-24T00:34:28.570Z,6.90
2018-12-24T00:36:59.996Z,6.70
2018-12-24T00:39:31.485Z,7.63
2018-12-24T00:42:02.894Z,7.30
2018-12-24T00:44:34.384Z,7.40
2018-12-24T00:47:05.861Z,7.77
2018-12-24T00:49:37.298Z,7.53
2018-12-24T00:52:08.732Z,7.37
2018-12-24T00:54:40.202Z,8.87
2018-12-24T00:57:11.620Z,7.63
2018-12-24T00:59:43.056Z,6.77
2018-12-24T01:02:14.984Z,7.70
2018-12-24T01:04:46.382Z,7.60
2018-12-24T01:07:17.813Z,7.10
2018-12-24T01:09:49.311Z,8.37
2018-12-24T01:12:24.619Z,8.67
2018-12-24T01:14:53.973Z,8.40
2018-12-24T01:17:25.438Z,7.30
2018-12-24T01:19:57.283Z,7.77
2018-12-24T01:22:28.781Z,7.40
2018-12-24T01:25:00.241Z,6.47
2018-12-24T01:27:31.653Z,6.83
2018-12-24T01:30:03.104Z,7.33
2018-12-24T01:32:34.565Z,7.53
2018-12-24T01:35:06.009Z,8.30
2018-12-24T01:37:38.010Z,8.57
2018-12-24T01:40:09.571Z,9.77
2018-12-24T01:42:40.985Z,9.03
2018-12-24T01:45:12.432Z,9.50
2018-12-24T01:47:43.851Z,9.53
2018-12-24T01:50:15.265Z,10.90
2018-12-24T01:52:46.768Z,10.50
2018-12-24T01:55:18.187Z,11.37
2018-12-24T01:57:49.642Z,10.17
2018-12-24T02:00:21.452Z,12.40
2018-12-24T02:02:52.864Z,11.07
2018-12-24T02:05:24.303Z,10.80
2018-12-24T02:07:55.724Z,10.50
2018-12-24T02:10:27.184Z,9.20
2018-12-24T02:12:58.865Z,9.57
2018-12-24T02:15:30.377Z,8.73
2018-12-24T02:18:01.906Z,7.10
2018-12-24T02:20:33.604Z,5.30
2018-12-24T02:23:05.060Z,4.57
2018-12-24T02:25:36.478Z,4.70
2018-12-24T02:28:08.180Z,4.50
2018-12-24T02:30:39.627Z,4.43
2018-12-24T02:33:11.322Z,4.70
2018-12-24T02:35:42.804Z,4.83
2018-12-24T02:38:14.231Z,4.93
2018-12-24T02:40:45.623Z,5.10
2018-12-24T02:43:17.183Z,5.80
2018-12-24T02:45:48.893Z,5.83
2018-12-24T02:48:20.339Z,5.87
2018-12-24T02:50:51.748Z,6.80
2018-12-24T02:53:24.594Z,7.00
2018-12-24T02:55:56.164Z,7.07
2018-12-24T02:58:27.569Z,7.83
2018-12-24T03:00:59.067Z,7.23
2018-12-24T03:03:30.530Z,8.17
2018-12-24T03:06:01.947Z,7.37
2018-12-24T03:08:33.402Z,8.07
2018-12-24T03:11:04.835Z,7.43
2018-12-24T03:13:36.407Z,7.57
2018-12-24T03:16:07.850Z,6.93
2018-12-24T03:18:39.311Z,7.20
2018-12-24T03:21:10.816Z,6.67
2018-12-24T03:23:42.249Z,7.00
2018-12-24T03:26:13.656Z,7.10
2018-12-24T03:28:45.394Z,6.00
2018-12-24T03:31:16.864Z,2.17
2018-12-24T03:33:48.341Z,1.00
2018-12-24T03:36:19.787Z,0.83
2018-12-24T03:38:51.209Z,0.80
2018-12-24T03:41:22.655Z,0.90
2018-12-24T03:43:54.405Z,0.70
2018-12-24T03:46:25.896Z,0.90
2018-12-24T03:48:57.348Z,1.23
2018-12-24T03:51:29.037Z,1.23
2018-12-24T03:54:00.502Z,1.47
2018-12-24T03:56:31.919Z,1.60
2018-12-24T03:59:03.612Z,1.63
2018-12-24T04:01:35.068Z,1.47
2018-12-24T04:04:06.543Z,1.80
2018-12-24T04:06:38.043Z,1.63
2018-12-24T04:09:09.715Z,2.10
2018-12-24T04:11:41.148Z,2.33
2018-12-24T04:14:12.867Z,2.40
2018-12-24T04:16:44.304Z,2.13
2018-12-24T04:19:15.751Z,2.40
2018-12-24T04:21:47.572Z,2.03
2018-12-24T04:24:18.979Z,2.50
2018-12-24T04:26:50.707Z,2.60
2018-12-24T04:29:22.715Z,2.43
2018-12-24T04:31:54.125Z,2.33
2018-12-24T04:34:25.569Z,2.40
2018-12-24T04:36:56.985Z,2.90
2018-12-24T04:39:28.396Z,3.20
2018-12-24T04:41:59.940Z,3.40
2018-12-24T04:44:31.333Z,3.20
2018-12-24T04:47:02.789Z,3.70
2018-12-24T04:49:34.529Z,3.63
2018-12-24T04:52:06.039Z,3.27
2018-12-24T04:54:37.557Z,3.27
2018-12-24T04:57:08.995Z,3.30
2018-12-24T04:59:40.763Z,3.27
2018-12-24T05:02:12.217Z,3.10
2018-12-24T05:04:43.904Z,3.23
2018-12-24T05:07:15.371Z,2.53
2018-12-24T05:09:46.766Z,2.47
2018-12-24T05:12:18.278Z,2.60
2018-12-24T05:14:49.676Z,2.77
2018-12-24T05:17:21.082Z,3.00
2018-12-24T05:19:52.518Z,3.13
2018-12-24T05:22:23.968Z,2.70
2018-12-24T05:24:55.481Z,3.13
2018-12-24T05:27:26.899Z,2.70
2018-12-24T05:29:58.299Z,2.57
2018-12-24T05:32:29.747Z,1.90
2018-12-24T05:35:01.147Z,2.17
2018-12-24T05:37:32.906Z,1.60
2018-12-24T05:40:04.327Z,1.70
2018-12-24T05:42:35.725Z,1.40
2018-12-24T05:45:07.252Z,1.50
2018-12-24T05:47:38.680Z,1.10
2018-12-24T05:50:10.178Z,1.20
2018-12-24T05:52:41.591Z,1.37
2018-12-24T05:55:13.020Z,1.40
2018-12-24T05:57:44.444Z,2.10
2018-12-24T06:00:15.877Z,1.60
2018-12-24T06:02:47.698Z,1.80
2018-12-24T06:05:19.099Z,1.40
2018-12-24T06:07:50.547Z,2.00
2018-12-24T06:10:22.273Z,1.57
2018-12-24T06:12:53.668Z,2.23
2018-12-24T06:15:25.078Z,1.97
2018-12-24T06:17:57.724Z,1.90
2018-12-24T06:20:37.516Z,2.40
2018-12-24T06:23:02.507Z,2.40
2018-12-24T06:25:33.936Z,2.70
2018-12-24T06:28:05.336Z,1.97
2018-12-24T06:30:37.350Z,2.70
2018-12-24T06:33:08.840Z,2.27
2018-12-24T06:35:40.349Z,2.00
2018-12-24T06:38:12.045Z,2.20
2018-12-24T06:40:43.455Z,2.20
2018-12-24T06:43:15.168Z,2.10
2018-12-24T06:45:46.564Z,2.63
2018-12-24T06:48:18.031Z,2.30
2018-12-24T06:50:49.496Z,2.13
2018-12-24T06:53:20.985Z,2.13
2018-12-24T06:55:52.426Z,2.30
2018-12-24T06:58:24.108Z,2.60
2018-12-24T07:00:56.194Z,2.63
2018-12-24T07:03:27.915Z,2.37
2018-12-24T07:05:59.328Z,2.80
2018-12-24T07:08:30.845Z,2.67
2018-12-24T07:11:02.846Z,2.67
2018-12-24T07:13:34.314Z,2.67
2018-12-24T07:16:05.717Z,3.10
2018-12-24T07:18:37.835Z,3.10
2018-12-24T07:21:09.564Z,3.60
2018-12-24T07:23:40.980Z,3.70
2018-12-24T07:26:12.434Z,3.50
2018-12-24T07:28:43.860Z,3.70
2018-12-24T07:31:15.291Z,3.50
2018-12-24T07:33:47.011Z,3.90
2018-12-24T07:36:18.533Z,4.63
2018-12-24T07:38:50.296Z,4.57
2018-12-24T07:41:21.708Z,4.60
2018-12-24T07:43:53.200Z,4.93
2018-12-24T07:46:24.907Z,4.90
2018-12-24T07:48:56.360Z,4.80
2018-12-24T07:51:27.803Z,5.17
2018-12-24T07:53:59.305Z,4.50
2018-12-24T07:56:30.770Z,4.97
2018-12-24T07:59:02.166Z,5.10
2018-12-24T08:01:33.611Z,5.73
2018-12-24T08:04:05.037Z,6.70
2018-12-24T08:06:36.720Z,6.37
2018-12-24T08:09:10.462Z,6.40
2018-12-24T08:12:08.351Z,6.97
2018-12-24T08:14:39.851Z,6.70
2018-12-24T08:17:11.285Z,5.80
2018-12-24T08:19:42.967Z,6.43
2018-12-24T08:22:14.415Z,5.33
2018-12-24T08:24:45.820Z,5.83
2018-12-24T08:27:17.329Z,6.20
2018-12-24T08:29:48.719Z,6.00
2018-12-24T08:32:20.126Z,6.37
2018-12-24T08:34:52.128Z,6.17
2018-12-24T08:37:23.812Z,5.70
2018-12-24T08:39:55.641Z,5.30
2018-12-24T08:42:27.083Z,4.33
2018-12-24T08:44:58.564Z,4.70
2018-12-24T08:47:30.013Z,4.40
2018-12-24T08:50:01.448Z,5.20
2018-12-24T08:52:33.091Z,5.50
2018-12-24T08:55:04.497Z,6.03
2018-12-24T08:57:36.195Z,7.23
2018-12-24T09:00:07.876Z,6.43
2018-12-24T09:02:39.313Z,6.30
2018-12-24T09:05:10.766Z,7.40
2018-12-24T09:07:42.174Z,7.50
2018-12-24T09:10:13.596Z,8.87
2018-12-24T09:12:45.131Z,7.30
2018-12-24T09:15:16.937Z,7.63
2018-12-24T09:17:48.486Z,8.13
2018-12-24T09:20:19.889Z,7.60
2018-12-24T09:22:51.362Z,7.40
2018-12-24T09:25:22.767Z,7.07
2018-12-24T09:27:54.796Z,7.80
2018-12-24T09:30:27.123Z,7.10
2018-12-24T09:32:58.520Z,7.77
2018-12-24T09:35:29.980Z,7.43
2018-12-24T09:38:01.751Z,6.33
2018-12-24T09:40:33.213Z,6.40
2018-12-24T09:43:04.632Z,5.07
2018-12-24T09:45:36.362Z,4.00
2018-12-24T09:48:07.867Z,3.80
2018-12-24T09:50:39.272Z,3.90
2018-12-24T09:53:10.812Z,4.13
2018-12-24T09:55:42.223Z,6.60
2018-12-24T09:58:13.650Z,5.20
2018-12-24T10:00:45.101Z,5.60
2018-12-24T10:03:28.922Z,5.90
2018-12-24T10:06:13.595Z,5.97
2018-12-24T10:08:45.721Z,5.20
2018-12-24T10:11:17.496Z,5.53
2018-12-24T10:13:49.011Z,5.40
2018-12-24T10:16:20.522Z,5.80
2018-12-24T10:18:51.999Z,5.27
2018-12-24T10:21:23.729Z,5.20
2018-12-24T10:23:56.110Z,5.00
2018-12-24T10:26:27.663Z,5.20
2018-12-24T10:28:59.106Z,4.87
2018-12-24T10:31:30.536Z,4.60
2018-12-24T10:34:02.540Z,4.50
2018-12-24T10:36:33.958Z,4.97
2018-12-24T10:39:06.844Z,3.77
2018-12-24T10:41:38.557Z,4.30
2018-12-24T10:44:10.033Z,4.13
2018-12-24T10:46:41.499Z,4.43
2018-12-24T10:49:13.782Z,4.07
2018-12-24T10:51:45.196Z,4.33
2018-12-24T10:54:16.676Z,3.90
2018-12-24T10:56:48.449Z,3.57
2018-12-24T10:59:19.942Z,3.93
2018-12-24T11:01:51.383Z,3.43
2018-12-24T11:04:23.106Z,3.63
2018-12-24T11:06:55.887Z,3.33
2018-12-24T11:09:27.605Z,3.97
2018-12-24T11:11:59.063Z,3.40
2018-12-24T11:14:30.483Z,4.20
2018-12-24T11:17:02.178Z,3.70
2018-12-24T11:19:33.927Z,3.73
2018-12-24T11:22:05.476Z,4.03
2018-12-24T11:24:36.940Z,4.73
2018-12-24T11:27:08.385Z,4.10
2018-12-24T11:29:40.089Z,3.80
2018-12-24T11:32:11.561Z,4.07
2018-12-24T11:34:42.985Z,3.00
2018-12-24T11:37:14.459Z,3.60
2018-12-24T11:39:45.876Z,3.73
2018-12-24T11:42:17.300Z,4.40
2018-12-24T11:44:48.750Z,3.47
2018-12-24T11:47:20.140Z,3.90
2018-12-24T11:49:51.607Z,7.03
2018-12-24T11:52:22.991Z,4.43
2018-12-24T11:54:54.473Z,6.30
2018-12-24T11:57:25.877Z,8.80
2018-12-24T11:59:57.294Z,3.60
2018-12-24T12:02:29.350Z,2.83
2018-12-24T12:05:00.761Z,3.07
2018-12-24T12:07:32.498Z,3.20
2018-12-24T12:10:04.413Z,3.17
2018-12-24T12:12:35.855Z,2.63
2018-12-24T12:15:07.529Z,2.73
2018-12-24T12:17:39.238Z,3.47
2018-12-24T12:20:10.868Z,2.40
2018-12-24T12:22:42.636Z,2.63
2018-12-24T12:26:30.276Z,2.50
2018-12-24T15:11:40.475Z,5.23
2018-12-24T15:18:37.024Z,5.60
2018-12-24T15:25:13.666Z,6.40
2018-12-24T15:28:38.675Z,5.23
2018-12-24T15:58:08.523Z,5.20
2018-12-24T16:27:33.251Z,4.23
2018-12-24T16:30:04.893Z,5.17
2018-12-24T16:32:35.854Z,5.23
2018-12-24T16:35:06.775Z,4.57
2018-12-24T16:37:37.640Z,5.50
2018-12-24T16:40:08.537Z,5.50
2018-12-24T16:42:39.727Z,5.10
2018-12-24T16:45:10.942Z,5.40
2018-12-24T16:47:41.817Z,4.50
2018-12-24T16:50:12.691Z,4.67
2018-12-24T16:52:43.935Z,4.40
2018-12-24T16:55:15.119Z,4.63
2018-12-24T16:57:46.400Z,4.77
2018-12-24T17:00:17.332Z,4.50
2018-12-24T17:02:48.244Z,5.00
2018-12-24T17:05:19.158Z,5.70
2018-12-24T17:07:50.013Z,5.30
2018-12-24T17:10:20.939Z,6.43
2018-12-24T17:12:52.254Z,5.93
2018-12-24T17:15:23.186Z,6.20
2018-12-24T17:17:54.108Z,5.73
2018-12-24T17:20:24.986Z,6.10
2018-12-24T17:22:55.883Z,5.40
2018-12-24T17:25:26.752Z,6.03
2018-12-24T17:27:57.735Z,5.90
2018-12-24T17:30:28.636Z,6.07
2018-12-24T17:33:01.616Z,6.93
2018-12-24T17:35:32.135Z,6.37
2018-12-24T17:38:03.056Z,6.13
2018-12-24T17:40:33.930Z,6.40
2018-12-24T17:43:05.116Z,7.17
2018-12-24T17:45:36.068Z,6.67
2018-12-24T17:48:07.247Z,6.40
2018-12-24T17:50:38.530Z,6.93
2018-12-24T17:53:09.689Z,7.13
2018-12-24T17:55:40.878Z,6.60
2018-12-24T17:58:12.086Z,6.50
2018-12-24T18:00:43.247Z,6.83
2018-12-24T18:03:14.198Z,7.70
2018-12-24T18:05:45.110Z,7.40
2018-12-24T18:08:15.991Z,7.53
2018-12-24T18:10:47.196Z,8.30
2018-12-24T18:13:18.068Z,6.37
2018-12-24T18:15:49.577Z,6.93
2018-12-24T18:18:20.445Z,7.20
2018-12-24T18:20:51.318Z,6.67
2018-12-24T18:23:22.246Z,7.27
2018-12-24T18:25:53.206Z,6.93
2018-12-24T18:28:24.396Z,7.57
2018-12-24T18:30:57.439Z,8.50
2018-12-24T18:33:28.213Z,8.07
2018-12-24T18:35:59.137Z,9.00
2018-12-24T18:38:30.208Z,8.33
2018-12-24T18:41:01.420Z,7.60
2018-12-24T18:43:32.332Z,7.67
2018-12-24T18:46:03.477Z,7.90
2018-12-24T18:48:34.363Z,6.07
2018-12-24T18:51:05.270Z,8.40
2018-12-24T18:53:36.174Z,9.27
2018-12-24T18:56:07.092Z,7.87
2018-12-24T18:58:37.973Z,8.10
2018-12-24T19:01:09.168Z,7.50
2018-12-24T19:03:40.054Z,8.10
2018-12-24T19:06:11.301Z,7.43
2018-12-24T19:08:42.173Z,8.43
2018-12-24T19:11:13.074Z,8.50
2018-12-24T19:13:43.972Z,8.00
2018-12-24T19:16:14.858Z,8.60
2018-12-24T19:18:46.413Z,8.83
2018-12-24T19:21:17.614Z,8.17
2018-12-24T19:24:07.248Z,9.47
2018-12-24T19:26:38.710Z,9.60
2018-12-24T19:29:09.633Z,9.50
2018-12-24T19:31:40.505Z,9.50
2018-12-24T19:34:11.439Z,9.07
2018-12-24T19:36:42.340Z,8.70
2018-12-24T19:39:13.413Z,9.53
2018-12-24T19:41:44.431Z,9.20
2018-12-24T19:44:15.682Z,8.27
2018-12-24T19:46:46.628Z,7.00
2018-12-24T19:49:17.543Z,8.23
2018-12-24T19:51:48.455Z,8.87
2018-12-24T19:54:19.656Z,8.00
2018-12-24T19:56:50.824Z,7.27
2018-12-24T19:59:21.682Z,9.83
2018-12-24T20:01:54.396Z,7.70
2018-12-24T20:04:25.778Z,8.43
2018-12-24T20:06:57.003Z,8.40
2018-12-24T20:09:27.880Z,7.57
2018-12-24T20:12:01.046Z,8.23
2018-12-24T20:14:32.225Z,6.40
2018-12-24T20:17:03.163Z,7.00
2018-12-24T20:19:34.386Z,7.90
2018-12-24T20:22:05.288Z,7.27
2018-12-24T20:24:36.203Z,7.60
2018-12-24T20:27:07.086Z,7.80
2018-12-24T20:29:37.947Z,8.13
2018-12-24T20:32:09.324Z,6.83
2018-12-24T20:34:40.192Z,7.23
2018-12-24T20:37:11.078Z,7.47
2018-12-24T20:39:42.129Z,7.73
2018-12-24T20:42:15.060Z,6.90
2018-12-24T20:44:46.291Z,7.27
2018-12-24T20:47:17.184Z,7.10
2018-12-24T20:49:48.070Z,6.97
2018-12-24T20:52:19.001Z,5.83
2018-12-24T20:54:49.953Z,6.30
2018-12-24T20:57:20.834Z,6.37
2018-12-24T20:59:51.759Z,6.30
2018-12-24T21:02:22.625Z,5.30
2018-12-24T21:04:53.565Z,5.70
2018-12-24T21:07:24.432Z,5.93
2018-12-24T21:09:55.318Z,7.30
2018-12-24T21:12:26.523Z,7.13
2018-12-24T21:14:57.393Z,6.47
2018-12-24T21:17:28.319Z,6.90
2018-12-24T21:19:59.204Z,6.73
2018-12-24T21:22:30.079Z,5.87
2018-12-24T21:25:00.967Z,5.20
2018-12-24T21:27:31.874Z,5.87
2018-12-24T21:30:02.789Z,5.23
2018-12-24T21:32:33.667Z,6.20
2018-12-24T21:35:04.853Z,5.03
2018-12-24T21:37:36.052Z,4.60
2018-12-24T21:40:06.918Z,5.20
2018-12-24T21:42:37.841Z,4.90
2018-12-24T21:45:08.717Z,4.93
2018-12-24T21:47:39.880Z,4.60
2018-12-24T21:50:11.069Z,5.37
2018-12-24T21:52:42.627Z,5.43
2018-12-24T21:55:13.543Z,4.17
2018-12-24T21:57:44.484Z,4.17
2018-12-24T22:00:15.417Z,4.17
2018-12-24T22:02:46.571Z,5.00
2018-12-24T22:05:17.779Z,5.17
2018-12-24T22:07:48.671Z,5.63
2018-12-24T22:10:19.546Z,5.10
2018-12-24T22:12:50.473Z,5.07
2018-12-24T22:15:21.441Z,5.57
2018-12-24T22:17:52.354Z,6.30
2018-12-24T22:20:23.245Z,4.83
2018-12-24T22:22:54.145Z,5.00
2018-12-24T22:25:25.162Z,5.77
2018-12-24T22:27:56.095Z,5.30
2018-12-24T22:30:26.966Z,5.67
2018-12-24T22:32:57.868Z,5.23
2018-12-24T22:35:28.740Z,5.70
2018-12-24T22:37:59.652Z,5.57
2018-12-24T22:40:30.540Z,5.13
2018-12-24T22:43:01.420Z,4.80
2018-12-24T22:45:32.403Z,5.33
2018-12-24T22:48:03.288Z,4.73
2018-12-24T22:50:34.539Z,5.80
2018-12-24T22:53:05.408Z,5.00
2018-12-24T22:55:36.287Z,4.50
2018-12-24T22:58:08.570Z,4.30
2018-12-24T23:00:49.210Z,5.00
2018-12-24T23:03:20.231Z,4.40
2018-12-24T23:05:51.152Z,5.20
2018-12-24T23:08:22.021Z,4.23
2018-12-24T23:10:52.917Z,4.07
2018-12-24T23:13:23.819Z,4.30
2018-12-24T23:15:55.025Z,4.17
2018-12-24T23:18:26.194Z,4.10
2018-12-24T23:20:57.070Z,4.67
2018-12-24T23:23:27.990Z,3.77
2018-12-24T23:25:58.883Z,3.70
2018-12-24T23:28:29.879Z,3.93
2018-12-24T23:31:00.757Z,3.10
2018-12-24T23:33:31.684Z,4.10
2018-12-24T23:36:02.566Z,3.57
2018-12-24T23:38:33.470Z,4.80
2018-12-24T23:41:04.683Z,3.70
2018-12-24T23:43:35.596Z,5.10
2018-12-24T23:46:06.543Z,3.70
2018-12-24T23:48:37.407Z,5.40
2018-12-24T23:51:08.564Z,7.87
2018-12-24T23:53:39.463Z,8.30
2018-12-24T23:56:10.938Z,7.20
2018-12-24T23:58:41.893Z,6.50
